createdAt,value
2018-05-07T00:00:37.197Z,0.00
2018-05-07T00:01:37.180Z,0.00
2018-05-07T00:02:37.230Z,0.00
2018-05-07T00:03:37.178Z,0.00
2018-05-07T00:04:37.185Z,0.00
2018-05-07T00:05:37.170Z,0.00
2018-05-07T00:06:37.163Z,0.00
2018-05-07T00:07:37.161Z,0.00
2018-05-07T00:08:37.153Z,0.00
2018-05-07T00:09:37.189Z,0.00
2018-05-07T00:10:37.144Z,0.00
2018-05-07T00:11:37.168Z,0.00
2018-05-07T00:12:37.140Z,0.00
2018-05-07T00:13:37.127Z,0.00
2018-05-07T00:14:37.149Z,0.00
2018-05-07T00:15:37.198Z,0.00
2018-05-07T00:16:37.126Z,0.00
2018-05-07T00:17:37.120Z,0.00
2018-05-07T00:18:37.096Z,0.00
2018-05-07T00:19:37.101Z,0.00
2018-05-07T00:20:37.197Z,0.00
2018-05-07T00:21:37.107Z,0.00
2018-05-07T00:22:37.118Z,0.00
2018-05-07T00:23:37.091Z,0.00
2018-05-07T00:24:37.090Z,0.00
2018-05-07T00:25:37.076Z,0.00
2018-05-07T00:26:37.138Z,0.00
2018-05-07T00:27:37.067Z,0.00
2018-05-07T00:28:37.063Z,0.00
2018-05-07T00:29:37.060Z,0.00
2018-05-07T00:30:37.064Z,0.00
2018-05-07T00:31:37.080Z,0.00
2018-05-07T00:32:37.044Z,0.00
2018-05-07T00:33:37.043Z,0.00
2018-05-07T00:34:37.038Z,0.00
2018-05-07T00:35:37.035Z,0.00
2018-05-07T00:36:37.062Z,0.00
2018-05-07T00:37:37.017Z,0.00
2018-05-07T00:38:37.013Z,0.00
2018-05-07T00:39:37.013Z,0.00
2018-05-07T00:40:37.009Z,0.00
2018-05-07T00:41:37.001Z,0.00
2018-05-07T00:42:37.001Z,0.00
2018-05-07T00:43:36.993Z,0.00
2018-05-07T00:44:36.999Z,0.00
2018-05-07T00:45:36.996Z,0.00
2018-05-07T00:46:36.989Z,0.00
2018-05-07T00:47:36.990Z,0.00
2018-05-07T00:48:36.987Z,0.00
2018-05-07T00:49:36.977Z,0.00
2018-05-07T00:50:36.973Z,0.00
2018-05-07T00:51:36.961Z,0.00
2018-05-07T00:52:36.978Z,0.00
2018-05-07T00:53:36.965Z,0.00
2018-05-07T00:54:36.953Z,0.00
2018-05-07T00:55:36.958Z,0.00
2018-05-07T00:56:36.946Z,0.00
2018-05-07T00:57:36.940Z,0.00
2018-05-07T00:58:36.931Z,0.00
2018-05-07T00:59:36.932Z,0.00
2018-05-07T01:00:36.933Z,0.00
2018-05-07T01:01:36.917Z,0.00
2018-05-07T01:02:36.916Z,0.00
2018-05-07T01:03:36.902Z,0.00
2018-05-07T01:04:36.907Z,0.00
2018-05-07T01:05:36.903Z,0.00
2018-05-07T01:06:36.900Z,0.00
2018-05-07T01:07:36.894Z,0.00
2018-05-07T01:08:36.885Z,0.00
2018-05-07T01:09:36.879Z,0.00
2018-05-07T01:10:36.874Z,0.00
2018-05-07T01:11:36.875Z,0.00
2018-05-07T01:12:36.860Z,0.00
2018-05-07T01:13:37.361Z,0.00
2018-05-07T01:14:37.375Z,0.00
2018-05-07T01:15:37.372Z,0.00
2018-05-07T01:17:36.849Z,0.00
2018-05-07T01:18:36.854Z,0.00
2018-05-07T01:19:36.867Z,0.00
2018-05-07T01:20:36.841Z,0.00
2018-05-07T01:21:36.829Z,0.00
2018-05-07T01:22:36.839Z,0.00
2018-05-07T01:23:57.825Z,0.00
2018-05-07T01:24:36.849Z,0.00
2018-05-07T01:25:36.812Z,0.00
2018-05-07T01:26:36.829Z,0.00
2018-05-07T01:27:36.804Z,0.00
2018-05-07T01:28:36.814Z,0.00
2018-05-07T01:29:57.805Z,0.00
2018-05-07T02:02:00.910Z,0.00
2018-05-07T02:03:00.880Z,0.00
2018-05-07T02:04:53.749Z,0.00
2018-05-07T02:05:53.738Z,0.00
2018-05-07T02:07:46.650Z,0.00
2018-05-07T02:08:46.604Z,0.00
2018-05-07T02:10:39.567Z,0.00
2018-05-07T02:11:39.546Z,0.00
2018-05-07T02:13:32.500Z,0.00
2018-05-07T02:14:32.471Z,0.00
2018-05-07T02:16:25.378Z,0.00
2018-05-07T02:17:25.363Z,0.00
2018-05-07T02:19:18.295Z,0.00
2018-05-07T02:20:18.274Z,0.00
2018-05-07T02:22:11.186Z,0.00
2018-05-07T02:23:11.167Z,0.00
2018-05-07T02:25:04.110Z,0.00
2018-05-07T02:26:04.084Z,0.00
2018-05-07T02:27:57.002Z,0.00
2018-05-07T02:28:56.977Z,0.00
2018-05-07T02:30:49.908Z,0.00
2018-05-07T02:31:49.894Z,0.00
2018-05-07T02:33:42.803Z,0.00
2018-05-07T02:34:42.787Z,0.00
2018-05-07T02:36:36.739Z,0.00
2018-05-07T02:37:36.727Z,0.00
2018-05-07T02:39:29.634Z,0.00
2018-05-07T02:40:29.612Z,0.00
2018-05-07T02:42:22.644Z,0.00
2018-05-07T02:43:22.528Z,0.00
2018-05-07T02:45:15.448Z,0.00
2018-05-07T02:46:15.432Z,0.00
2018-05-07T02:48:08.364Z,0.00
2018-05-07T02:49:08.356Z,0.00
2018-05-07T02:51:01.241Z,0.00
2018-05-07T02:52:01.219Z,0.00
2018-05-07T02:53:54.178Z,0.00
2018-05-07T02:54:54.143Z,0.00
2018-05-07T02:56:47.037Z,0.00
2018-05-07T02:57:47.018Z,0.00
2018-05-07T02:59:39.946Z,0.00
2018-05-07T03:00:39.917Z,0.00
2018-05-07T03:02:32.814Z,0.00
2018-05-07T03:03:32.798Z,0.00
2018-05-07T03:05:25.706Z,0.00
2018-05-07T03:06:25.679Z,0.00
2018-05-07T03:08:18.626Z,0.00
2018-05-07T03:09:18.612Z,0.00
2018-05-07T03:11:11.508Z,0.00
2018-05-07T03:12:11.500Z,0.00
2018-05-07T03:14:04.424Z,0.00
2018-05-07T03:15:04.414Z,0.00
2018-05-07T03:16:57.315Z,0.00
2018-05-07T03:17:57.292Z,0.00
2018-05-07T03:19:50.235Z,0.00
2018-05-07T03:20:50.222Z,0.00
2018-05-07T03:22:43.121Z,0.00
2018-05-07T03:23:43.097Z,0.00
2018-05-07T03:25:36.049Z,0.00
2018-05-07T03:26:36.027Z,0.00
2018-05-07T03:28:28.918Z,0.00
2018-05-07T03:29:28.904Z,0.00
2018-05-07T03:31:21.849Z,0.00
2018-05-07T03:32:21.827Z,0.00
2018-05-07T03:35:05.686Z,0.00
2018-05-07T03:36:05.665Z,0.00
2018-05-07T03:37:58.579Z,0.00
2018-05-07T03:38:58.559Z,0.00
2018-05-07T03:40:51.514Z,0.00
2018-05-07T03:41:51.485Z,0.00
2018-05-07T03:43:44.375Z,5.63
2018-05-07T03:44:44.368Z,5.63
2018-05-07T03:46:37.314Z,5.63
2018-05-07T03:47:37.294Z,5.63
2018-05-07T03:49:30.183Z,11.25
2018-05-07T03:50:30.167Z,11.25
2018-05-07T03:52:23.087Z,11.25
2018-05-07T03:53:23.063Z,16.88
2018-05-07T03:55:15.968Z,16.88
2018-05-07T03:56:15.949Z,22.50
2018-05-07T03:58:08.861Z,22.50
2018-05-07T03:59:08.833Z,28.13
2018-05-07T04:01:01.767Z,33.75
2018-05-07T04:02:01.759Z,39.38
2018-05-07T04:03:54.652Z,39.38
2018-05-07T04:04:54.617Z,45.00
2018-05-07T04:06:47.567Z,50.63
2018-05-07T04:07:47.551Z,56.25
2018-05-07T04:09:40.499Z,61.88
2018-05-07T04:10:40.490Z,61.88
2018-05-07T04:12:33.471Z,61.88
2018-05-07T04:13:33.421Z,67.50
2018-05-07T04:15:26.327Z,73.13
2018-05-07T04:16:26.309Z,78.75
2018-05-07T04:18:19.252Z,84.38
2018-05-07T04:19:19.244Z,90.00
2018-05-07T04:21:12.143Z,95.63
2018-05-07T04:22:12.128Z,95.63
2018-05-07T04:24:05.109Z,101.25
2018-05-07T04:25:05.087Z,106.88
2018-05-07T04:26:58.014Z,112.50
2018-05-07T04:27:58.001Z,112.50
2018-05-07T04:29:50.918Z,118.13
2018-05-07T04:30:50.899Z,123.75
2018-05-07T04:32:43.858Z,129.38
2018-05-07T04:33:43.884Z,135.00
2018-05-07T04:35:36.825Z,146.25
2018-05-07T04:36:36.802Z,140.63
2018-05-07T04:38:29.771Z,146.25
2018-05-07T04:39:29.755Z,151.88
2018-05-07T04:41:22.730Z,157.50
2018-05-07T04:42:22.707Z,163.13
2018-05-07T04:44:15.684Z,168.75
2018-05-07T04:45:15.661Z,168.75
2018-05-07T04:47:08.633Z,174.38
2018-05-07T04:48:08.617Z,180.00
2018-05-07T04:50:01.620Z,185.63
2018-05-07T04:51:01.590Z,191.25
2018-05-07T04:52:54.638Z,191.25
2018-05-07T04:53:54.626Z,191.25
2018-05-07T04:55:47.547Z,196.88
2018-05-07T04:56:47.530Z,196.88
2018-05-07T04:58:40.422Z,202.50
2018-05-07T04:59:40.427Z,208.13
2018-05-07T05:01:33.340Z,213.75
2018-05-07T05:02:33.319Z,213.75
2018-05-07T05:05:17.317Z,225.00
2018-05-07T05:06:17.319Z,225.00
2018-05-07T05:08:10.243Z,236.25
2018-05-07T05:09:10.186Z,241.88
2018-05-07T05:11:03.092Z,241.88
2018-05-07T05:12:03.069Z,247.50
2018-05-07T05:13:55.972Z,253.13
2018-05-07T05:14:55.960Z,253.13
2018-05-07T05:16:48.981Z,258.75
2018-05-07T05:17:48.959Z,264.38
2018-05-07T05:19:41.851Z,270.00
2018-05-07T05:20:41.835Z,270.00
2018-05-07T05:22:34.795Z,281.25
2018-05-07T05:23:34.769Z,281.25
2018-05-07T05:25:27.731Z,281.25
2018-05-07T05:26:27.713Z,286.88
2018-05-07T05:28:20.667Z,292.50
2018-05-07T05:29:20.634Z,315.00
2018-05-07T05:31:13.524Z,320.63
2018-05-07T05:32:13.499Z,326.25
2018-05-07T05:34:06.395Z,331.88
2018-05-07T05:35:06.381Z,337.50
2018-05-07T05:36:59.294Z,343.13
2018-05-07T05:37:59.277Z,348.75
2018-05-07T05:39:52.188Z,348.75
2018-05-07T05:40:52.145Z,354.38
2018-05-07T05:42:45.067Z,365.63
2018-05-07T05:43:45.151Z,365.63
2018-05-07T05:45:37.957Z,371.25
2018-05-07T05:46:37.942Z,376.88
2018-05-07T05:48:30.859Z,382.50
2018-05-07T05:49:30.822Z,388.13
2018-05-07T05:51:23.759Z,393.75
2018-05-07T05:52:23.722Z,399.38
2018-05-07T05:54:16.750Z,405.00
2018-05-07T05:55:16.747Z,405.00
2018-05-07T05:57:09.642Z,416.25
2018-05-07T05:58:09.627Z,416.25
2018-05-07T06:00:02.552Z,427.50
2018-05-07T06:01:02.523Z,427.50
2018-05-07T06:02:55.460Z,438.75
2018-05-07T06:03:55.528Z,444.38
2018-05-07T06:05:48.361Z,450.00
2018-05-07T06:06:48.342Z,455.63
2018-05-07T06:07:48.329Z,455.63
2018-05-07T06:08:48.326Z,455.63
2018-05-07T06:09:48.325Z,461.25
2018-05-07T06:10:48.350Z,461.25
2018-05-07T06:11:48.316Z,466.88
2018-05-07T06:12:48.316Z,472.50
2018-05-07T06:13:48.307Z,472.50
2018-05-07T06:14:48.325Z,478.13
2018-05-07T06:15:48.306Z,483.75
2018-05-07T06:16:48.299Z,483.75
2018-05-07T06:17:48.293Z,489.38
2018-05-07T06:18:48.295Z,489.38
2018-05-07T06:19:48.289Z,495.00
2018-05-07T06:20:48.293Z,495.00
2018-05-07T06:21:48.283Z,500.63
2018-05-07T06:22:48.282Z,511.88
2018-05-07T06:23:48.279Z,506.25
2018-05-07T06:24:48.275Z,506.25
2018-05-07T06:25:48.271Z,517.50
2018-05-07T06:26:48.284Z,511.88
2018-05-07T06:27:48.287Z,511.88
2018-05-07T06:28:48.261Z,511.88
2018-05-07T06:29:48.260Z,523.13
2018-05-07T06:30:48.257Z,523.13
2018-05-07T06:31:48.251Z,523.13
2018-05-07T06:32:48.261Z,523.13
2018-05-07T06:33:48.246Z,528.75
2018-05-07T06:34:48.234Z,528.75
2018-05-07T06:35:48.235Z,534.38
2018-05-07T06:36:48.239Z,534.38
2018-05-07T06:37:48.236Z,540.00
2018-05-07T06:38:48.231Z,545.63
2018-05-07T06:39:48.233Z,551.25
2018-05-07T06:40:48.225Z,545.63
2018-05-07T06:41:48.213Z,551.25
2018-05-07T06:42:48.222Z,551.25
2018-05-07T06:43:48.214Z,556.88
2018-05-07T06:44:48.216Z,556.88
2018-05-07T06:45:48.225Z,556.88
2018-05-07T06:46:48.207Z,562.50
2018-05-07T06:47:48.223Z,562.50
2018-05-07T06:48:48.207Z,568.13
2018-05-07T06:49:48.201Z,568.13
2018-05-07T06:50:48.202Z,568.13
2018-05-07T06:51:48.196Z,573.75
2018-05-07T06:52:48.193Z,573.75
2018-05-07T06:53:48.197Z,573.75
2018-05-07T06:54:48.189Z,579.38
2018-05-07T06:55:48.191Z,585.00
2018-05-07T06:56:48.187Z,585.00
2018-05-07T06:57:48.182Z,579.38
2018-05-07T06:58:48.179Z,585.00
2018-05-07T06:59:48.184Z,585.00
2018-05-07T07:00:48.177Z,590.63
2018-05-07T07:01:48.172Z,590.63
2018-05-07T07:02:48.446Z,590.63
2018-05-07T07:03:48.171Z,590.63
2018-05-07T07:04:48.168Z,596.25
2018-05-07T07:05:48.178Z,596.25
2018-05-07T07:06:48.154Z,613.13
2018-05-07T07:07:48.166Z,624.38
2018-05-07T07:08:48.164Z,652.50
2018-05-07T07:09:48.155Z,691.88
2018-05-07T07:10:48.151Z,1035.00
2018-05-07T07:11:48.153Z,2143.13
2018-05-07T07:12:48.148Z,2503.13
2018-05-07T07:13:48.148Z,2390.63
2018-05-07T07:14:48.146Z,2424.38
2018-05-07T07:15:48.146Z,2531.25
2018-05-07T07:16:48.148Z,2750.63
2018-05-07T07:17:48.147Z,2851.88
2018-05-07T07:18:48.148Z,2536.88
2018-05-07T07:19:48.153Z,2823.75
2018-05-07T07:20:48.174Z,2863.13
2018-05-07T07:21:48.211Z,2778.75
2018-05-07T07:22:48.163Z,2947.50
2018-05-07T07:23:48.179Z,2953.13
2018-05-07T07:24:48.174Z,2981.25
2018-05-07T07:25:48.183Z,2857.50
2018-05-07T07:26:48.186Z,2964.38
2018-05-07T07:27:48.199Z,3150.00
2018-05-07T07:28:48.199Z,3189.38
2018-05-07T07:29:48.210Z,3161.25
2018-05-07T07:30:48.213Z,3313.13
2018-05-07T07:31:48.229Z,3408.75
2018-05-07T07:32:48.227Z,3206.25
2018-05-07T07:33:48.303Z,3037.50
2018-05-07T07:34:48.264Z,3138.75
2018-05-07T07:35:48.257Z,3268.13
2018-05-07T07:36:48.262Z,3211.88
2018-05-07T07:37:48.266Z,3363.75
2018-05-07T07:38:48.280Z,3240.00
2018-05-07T07:39:48.284Z,3161.25
2018-05-07T07:40:48.292Z,3346.88
2018-05-07T07:41:48.306Z,3273.75
2018-05-07T07:42:48.307Z,3324.38
2018-05-07T07:43:48.314Z,3240.00
2018-05-07T07:44:48.342Z,3161.25
2018-05-07T07:45:48.356Z,3245.63
2018-05-07T07:46:48.345Z,3470.63
2018-05-07T07:47:48.370Z,3515.63
2018-05-07T07:48:48.384Z,3408.75
2018-05-07T07:49:48.381Z,3493.13
2018-05-07T07:50:48.392Z,3605.63
2018-05-07T07:51:48.403Z,3498.75
2018-05-07T07:52:48.412Z,3504.38
2018-05-07T07:53:48.442Z,3588.75
2018-05-07T07:54:48.429Z,3346.88
2018-05-07T07:55:48.437Z,3346.88
2018-05-07T07:56:48.456Z,3206.25
2018-05-07T07:57:48.466Z,3375.00
2018-05-07T07:58:48.472Z,3571.88
2018-05-07T07:59:48.487Z,3020.63
2018-05-07T08:00:48.502Z,3313.13
2018-05-07T08:01:48.506Z,3532.50
2018-05-07T08:02:48.514Z,3290.63
2018-05-07T08:03:48.533Z,3420.00
2018-05-07T08:04:48.551Z,3436.88
2018-05-07T08:05:48.563Z,3487.50
2018-05-07T08:06:48.580Z,3605.63
2018-05-07T08:07:48.592Z,3661.88
2018-05-07T08:08:48.594Z,3920.63
2018-05-07T08:09:48.603Z,3847.50
2018-05-07T08:10:48.617Z,3920.63
2018-05-07T08:11:48.630Z,3948.75
2018-05-07T08:12:48.644Z,3937.50
2018-05-07T08:13:48.642Z,3931.88
2018-05-07T08:14:48.660Z,3858.75
2018-05-07T08:15:48.701Z,3948.75
2018-05-07T08:16:48.696Z,4213.13
2018-05-07T08:17:48.710Z,4061.25
2018-05-07T08:18:48.716Z,3937.50
2018-05-07T08:19:48.734Z,3915.00
2018-05-07T08:20:49.414Z,3971.25
2018-05-07T08:21:48.767Z,4185.00
2018-05-07T08:22:48.774Z,4207.50
2018-05-07T08:23:48.782Z,3881.25
2018-05-07T08:24:48.837Z,3875.63
2018-05-07T08:25:48.818Z,4066.88
2018-05-07T08:26:48.837Z,3988.13
2018-05-07T08:27:48.835Z,3684.38
2018-05-07T08:28:48.845Z,3408.75
2018-05-07T08:29:48.857Z,3611.25
2018-05-07T08:30:48.862Z,3853.13
2018-05-07T08:31:48.883Z,3594.38
2018-05-07T08:32:48.899Z,3543.75
2018-05-07T08:33:48.913Z,3532.50
2018-05-07T08:34:49.849Z,3375.00
2018-05-07T08:35:49.850Z,3487.50
2018-05-07T08:36:49.856Z,3459.38
2018-05-07T08:37:48.968Z,3358.13
2018-05-07T08:38:48.971Z,3431.25
2018-05-07T08:39:49.012Z,3391.88
2018-05-07T08:40:49.004Z,3031.88
2018-05-07T08:41:49.027Z,3026.25
2018-05-07T08:42:49.028Z,3386.25
2018-05-07T08:43:49.040Z,3262.50
2018-05-07T08:44:49.053Z,3206.25
2018-05-07T08:45:49.064Z,3403.13
2018-05-07T08:46:49.086Z,3521.25
2018-05-07T08:47:49.099Z,3515.63
2018-05-07T08:48:49.115Z,3476.25
2018-05-07T08:49:49.141Z,3459.38
2018-05-07T08:50:49.160Z,3397.50
2018-05-07T08:51:49.157Z,3352.50
2018-05-07T08:52:49.223Z,3425.63
2018-05-07T08:53:49.202Z,3296.25
2018-05-07T08:54:49.202Z,3211.88
2018-05-07T08:55:49.222Z,3436.88
2018-05-07T08:56:49.240Z,3532.50
2018-05-07T08:57:49.239Z,3465.00
2018-05-07T08:58:49.257Z,3217.50
2018-05-07T08:59:49.279Z,3420.00
2018-05-07T09:00:49.292Z,3594.38
2018-05-07T09:01:49.307Z,3330.00
2018-05-07T09:02:49.321Z,3515.63
2018-05-07T09:03:49.336Z,3690.00
2018-05-07T09:04:49.348Z,3380.63
2018-05-07T09:05:49.374Z,3600.00
2018-05-07T09:06:49.385Z,3622.50
2018-05-07T09:07:49.397Z,3504.38
2018-05-07T09:08:49.413Z,3757.50
2018-05-07T09:09:49.416Z,3915.00
2018-05-07T09:10:49.436Z,3746.25
2018-05-07T09:11:49.446Z,3583.13
2018-05-07T09:12:49.469Z,3645.00
2018-05-07T09:13:49.481Z,3768.75
2018-05-07T09:14:49.501Z,3735.00
2018-05-07T09:15:49.515Z,3791.25
2018-05-07T09:16:49.531Z,3976.88
2018-05-07T09:17:49.543Z,3583.13
2018-05-07T09:18:49.557Z,3588.75
2018-05-07T09:19:49.573Z,3695.63
2018-05-07T09:20:49.590Z,3920.63
2018-05-07T09:21:49.607Z,3943.13
2018-05-07T09:22:49.624Z,3780.00
2018-05-07T09:23:49.630Z,4089.38
2018-05-07T09:24:49.741Z,3954.38
2018-05-07T09:25:49.668Z,3802.50
2018-05-07T09:26:49.681Z,3915.00
2018-05-07T09:27:49.693Z,3858.75
2018-05-07T09:28:49.710Z,3858.75
2018-05-07T09:29:49.726Z,3931.88
2018-05-07T09:30:49.739Z,3808.13
2018-05-07T09:31:49.755Z,3538.13
2018-05-07T09:32:49.768Z,3431.25
2018-05-07T09:33:49.787Z,3318.75
2018-05-07T09:34:49.803Z,3189.38
2018-05-07T09:35:49.814Z,3571.88
2018-05-07T09:36:49.833Z,4044.38
2018-05-07T09:37:49.848Z,3813.75
2018-05-07T09:38:49.864Z,3802.50
2018-05-07T09:39:49.881Z,3898.13
2018-05-07T09:40:49.894Z,4061.25
2018-05-07T09:41:49.908Z,4213.13
2018-05-07T09:42:49.936Z,3836.25
2018-05-07T09:43:49.933Z,3695.63
2018-05-07T09:44:49.956Z,3903.75
2018-05-07T09:45:49.974Z,4134.38
2018-05-07T09:46:49.987Z,3915.00
2018-05-07T09:47:50.003Z,3937.50
2018-05-07T09:48:50.046Z,3791.25
2018-05-07T09:49:50.037Z,3864.38
2018-05-07T09:50:50.050Z,4365.00
2018-05-07T09:51:50.072Z,3937.50
2018-05-07T09:52:50.084Z,3639.38
2018-05-07T09:53:50.101Z,4033.13
2018-05-07T09:54:50.121Z,4286.25
2018-05-07T09:55:50.151Z,4083.75
2018-05-07T09:56:50.253Z,3684.38
2018-05-07T09:57:50.162Z,3948.75
2018-05-07T09:58:50.179Z,3706.88
2018-05-07T09:59:50.199Z,3510.00
2018-05-07T10:00:50.213Z,3667.50
2018-05-07T10:01:50.239Z,3695.63
2018-05-07T10:02:50.243Z,3791.25
2018-05-07T10:03:50.263Z,3780.00
2018-05-07T10:04:50.302Z,3808.13
2018-05-07T10:05:50.283Z,3841.88
2018-05-07T10:06:50.306Z,3971.25
2018-05-07T10:07:50.328Z,3960.00
2018-05-07T10:08:50.342Z,3678.75
2018-05-07T10:09:50.360Z,3481.88
2018-05-07T10:10:50.373Z,3656.25
2018-05-07T10:11:50.390Z,3808.13
2018-05-07T10:12:50.398Z,4128.75
2018-05-07T10:13:50.419Z,3948.75
2018-05-07T10:14:50.438Z,3898.13
2018-05-07T10:15:50.454Z,4055.63
2018-05-07T10:16:50.469Z,3926.25
2018-05-07T10:17:50.487Z,4083.75
2018-05-07T10:18:50.503Z,3903.75
2018-05-07T10:19:50.517Z,3695.63
2018-05-07T10:20:50.535Z,3937.50
2018-05-07T10:21:50.553Z,3706.88
2018-05-07T10:22:50.562Z,3813.75
2018-05-07T10:23:50.576Z,4010.63
2018-05-07T10:24:50.599Z,4106.25
2018-05-07T10:25:50.625Z,4123.13
2018-05-07T10:26:50.631Z,3819.38
2018-05-07T10:27:50.645Z,3588.75
2018-05-07T10:28:50.663Z,3757.50
2018-05-07T10:29:50.685Z,3920.63
2018-05-07T10:30:50.694Z,4145.63
2018-05-07T10:31:50.744Z,4083.75
2018-05-07T10:32:50.743Z,3898.13
2018-05-07T10:33:50.736Z,4055.63
2018-05-07T10:34:50.768Z,3892.50
2018-05-07T10:35:50.782Z,3678.75
2018-05-07T10:36:50.792Z,4111.88
2018-05-07T10:37:50.856Z,4055.63
2018-05-07T10:38:50.825Z,3909.38
2018-05-07T10:39:50.837Z,3915.00
2018-05-07T10:40:50.867Z,3993.75
2018-05-07T10:41:50.878Z,3898.13
2018-05-07T10:42:50.911Z,3864.38
2018-05-07T10:43:50.918Z,3864.38
2018-05-07T10:44:50.918Z,3481.88
2018-05-07T10:45:50.939Z,3476.25
2018-05-07T10:46:50.948Z,3645.00
2018-05-07T10:47:50.963Z,3847.50
2018-05-07T10:48:50.977Z,3870.00
2018-05-07T10:49:51.009Z,4128.75
2018-05-07T10:50:51.010Z,4156.88
2018-05-07T10:51:51.029Z,3510.00
2018-05-07T10:52:51.050Z,3639.38
2018-05-07T10:53:51.060Z,3656.25
2018-05-07T10:54:51.079Z,3892.50
2018-05-07T10:55:51.091Z,4044.38
2018-05-07T10:56:51.099Z,3735.00
2018-05-07T10:57:51.116Z,4078.13
2018-05-07T10:58:51.128Z,3931.88
2018-05-07T10:59:51.156Z,3791.25
2018-05-07T11:00:51.174Z,4010.63
2018-05-07T11:01:51.193Z,4224.38
2018-05-07T11:02:51.202Z,4432.50
2018-05-07T11:03:51.231Z,4336.88
2018-05-07T11:04:51.247Z,4477.50
2018-05-07T11:05:51.271Z,4387.50
2018-05-07T11:06:51.311Z,3937.50
2018-05-07T11:07:51.279Z,3616.88
2018-05-07T11:08:51.289Z,3436.88
2018-05-07T11:09:51.316Z,3751.88
2018-05-07T11:10:51.339Z,4494.38
2018-05-07T11:11:51.348Z,4741.88
2018-05-07T11:12:51.361Z,4432.50
2018-05-07T11:13:51.377Z,3909.38
2018-05-07T11:14:51.397Z,3729.38
2018-05-07T11:15:51.410Z,3768.75
2018-05-07T11:16:51.448Z,3735.00
2018-05-07T11:17:51.448Z,3616.88
2018-05-07T11:18:51.477Z,3526.88
2018-05-07T11:19:51.578Z,4010.63
2018-05-07T11:20:51.489Z,3948.75
2018-05-07T11:21:51.507Z,3847.50
2018-05-07T11:22:51.517Z,3954.38
2018-05-07T11:23:51.536Z,4061.25
2018-05-07T11:24:51.551Z,3943.13
2018-05-07T11:25:51.567Z,3622.50
2018-05-07T11:26:51.582Z,4066.88
2018-05-07T11:27:51.609Z,4089.38
2018-05-07T11:28:51.620Z,3391.88
2018-05-07T11:29:51.629Z,3504.38
2018-05-07T11:30:51.649Z,3830.63
2018-05-07T11:31:51.660Z,3847.50
2018-05-07T11:32:51.677Z,3369.38
2018-05-07T11:33:51.706Z,3448.13
2018-05-07T11:34:51.708Z,3988.13
2018-05-07T11:35:51.723Z,3757.50
2018-05-07T11:36:51.764Z,3493.13
2018-05-07T11:37:51.754Z,3504.38
2018-05-07T11:38:51.776Z,3583.13
2018-05-07T11:39:51.804Z,3819.38
2018-05-07T11:40:51.797Z,3858.75
2018-05-07T11:41:51.818Z,3819.38
2018-05-07T11:42:51.832Z,3858.75
2018-05-07T11:43:51.850Z,4005.00
2018-05-07T11:44:51.867Z,4179.38
2018-05-07T11:45:51.885Z,4005.00
2018-05-07T11:46:51.895Z,3667.50
2018-05-07T11:47:51.926Z,3498.75
2018-05-07T11:48:51.925Z,3498.75
2018-05-07T11:49:51.945Z,3982.50
2018-05-07T11:50:51.959Z,3870.00
2018-05-07T11:51:51.974Z,3330.00
2018-05-07T11:52:51.998Z,3290.63
2018-05-07T11:53:52.011Z,3948.75
2018-05-07T11:54:52.050Z,4140.00
2018-05-07T11:55:52.941Z,4072.50
2018-05-07T11:56:52.061Z,3273.75
2018-05-07T11:57:52.070Z,3048.75
2018-05-07T11:58:52.860Z,3594.38
2018-05-07T11:59:52.865Z,3498.75
2018-05-07T12:00:52.864Z,3695.63
2018-05-07T12:01:52.134Z,3802.50
2018-05-07T12:02:52.145Z,3836.25
2018-05-07T12:03:52.168Z,4083.75
2018-05-07T12:04:52.184Z,3903.75
2018-05-07T12:05:52.191Z,4010.63
2018-05-07T12:06:52.206Z,4089.38
2018-05-07T12:07:52.954Z,3763.13
2018-05-07T12:08:52.236Z,3549.38
2018-05-07T12:09:52.255Z,3352.50
2018-05-07T12:10:52.261Z,3600.00
2018-05-07T12:11:52.302Z,3656.25
2018-05-07T12:12:52.295Z,3358.13
2018-05-07T12:13:52.319Z,3262.50
2018-05-07T12:14:52.352Z,3555.00
2018-05-07T12:15:52.493Z,3099.38
2018-05-07T12:16:52.938Z,3043.13
2018-05-07T12:17:52.364Z,3425.63
2018-05-07T12:18:52.448Z,3279.38
2018-05-07T12:19:52.940Z,3116.25
2018-05-07T12:20:52.936Z,2981.25
2018-05-07T12:21:52.434Z,3082.50
2018-05-07T12:22:52.455Z,3071.25
2018-05-07T12:23:52.463Z,3431.25
2018-05-07T12:24:52.514Z,3380.63
2018-05-07T12:25:53.442Z,3431.25
2018-05-07T12:26:53.453Z,3363.75
2018-05-07T12:27:53.446Z,2221.88
2018-05-07T12:28:53.436Z,725.63
2018-05-07T12:29:52.536Z,540.00
2018-05-07T12:30:52.610Z,495.00
2018-05-07T12:31:52.678Z,483.75
2018-05-07T12:32:53.459Z,478.13
2018-05-07T12:33:52.588Z,472.50
2018-05-07T12:34:52.622Z,472.50
2018-05-07T12:35:53.441Z,472.50
2018-05-07T12:36:52.638Z,466.88
2018-05-07T12:37:52.637Z,461.25
2018-05-07T12:38:52.632Z,461.25
2018-05-07T12:39:52.646Z,466.88
2018-05-07T12:40:52.640Z,455.63
2018-05-07T12:41:52.649Z,461.25
2018-05-07T12:42:52.655Z,455.63
2018-05-07T12:43:52.660Z,455.63
2018-05-07T12:44:52.667Z,450.00
2018-05-07T12:45:52.675Z,450.00
2018-05-07T12:46:52.688Z,444.38
2018-05-07T12:47:52.690Z,444.38
2018-05-07T12:48:52.687Z,444.38
2018-05-07T12:49:52.691Z,438.75
2018-05-07T12:50:52.697Z,438.75
2018-05-07T12:51:52.702Z,433.13
2018-05-07T12:52:52.707Z,433.13
2018-05-07T12:53:52.710Z,433.13
2018-05-07T12:54:52.714Z,433.13
2018-05-07T12:55:52.732Z,433.13
2018-05-07T12:56:52.719Z,433.13
2018-05-07T12:57:52.718Z,427.50
2018-05-07T12:58:52.717Z,427.50
2018-05-07T12:59:52.799Z,421.88
2018-05-07T13:00:52.732Z,421.88
2018-05-07T13:01:52.731Z,421.88
2018-05-07T13:02:52.735Z,416.25
2018-05-07T13:03:52.739Z,416.25
2018-05-07T13:04:52.746Z,416.25
2018-05-07T13:05:52.809Z,416.25
2018-05-07T13:06:52.738Z,416.25
2018-05-07T13:07:52.751Z,410.63
2018-05-07T13:08:52.748Z,410.63
2018-05-07T13:09:52.753Z,410.63
2018-05-07T13:10:52.752Z,410.63
2018-05-07T13:11:52.756Z,410.63
2018-05-07T13:12:52.761Z,410.63
2018-05-07T13:13:52.757Z,410.63
2018-05-07T13:14:52.759Z,405.00
2018-05-07T13:15:52.772Z,405.00
2018-05-07T13:16:52.770Z,405.00
2018-05-07T13:17:52.767Z,405.00
2018-05-07T13:18:52.765Z,410.63
2018-05-07T13:19:52.759Z,405.00
2018-05-07T13:20:52.779Z,405.00
2018-05-07T13:21:52.774Z,405.00
2018-05-07T13:22:52.772Z,399.38
2018-05-07T13:23:52.776Z,399.38
2018-05-07T13:24:52.832Z,399.38
2018-05-07T13:25:52.791Z,405.00
2018-05-07T13:26:52.781Z,405.00
2018-05-07T13:27:52.784Z,405.00
2018-05-07T13:28:52.780Z,399.38
2018-05-07T13:29:52.791Z,393.75
2018-05-07T13:30:52.789Z,399.38
2018-05-07T13:31:52.791Z,393.75
2018-05-07T13:32:52.789Z,393.75
2018-05-07T13:33:52.782Z,399.38
2018-05-07T13:34:52.795Z,399.38
2018-05-07T13:35:52.793Z,399.38
2018-05-07T13:36:52.848Z,399.38
2018-05-07T13:37:52.795Z,405.00
2018-05-07T13:38:52.798Z,405.00
2018-05-07T13:39:52.799Z,405.00
2018-05-07T13:40:52.814Z,399.38
2018-05-07T13:41:52.807Z,399.38
2018-05-07T13:42:52.792Z,405.00
2018-05-07T13:43:52.802Z,405.00
2018-05-07T13:44:52.806Z,410.63
2018-05-07T13:45:52.812Z,416.25
2018-05-07T13:46:52.809Z,421.88
2018-05-07T13:47:52.817Z,427.50
2018-05-07T13:48:52.810Z,427.50
2018-05-07T13:49:52.816Z,427.50
2018-05-07T13:50:52.815Z,438.75
2018-05-07T13:51:52.817Z,450.00
2018-05-07T13:52:52.818Z,466.88
2018-05-07T13:53:52.817Z,489.38
2018-05-07T13:54:52.831Z,506.25
2018-05-07T13:55:52.824Z,523.13
2018-05-07T13:56:52.872Z,545.63
2018-05-07T13:57:52.820Z,556.88
2018-05-07T13:58:52.826Z,568.13
2018-05-07T13:59:52.839Z,573.75
2018-05-07T14:00:52.834Z,568.13
2018-05-07T14:01:52.836Z,573.75
2018-05-07T14:02:52.838Z,579.38
2018-05-07T14:03:52.832Z,585.00
2018-05-07T14:04:52.834Z,590.63
2018-05-07T14:05:52.839Z,601.88
2018-05-07T14:06:52.871Z,613.13
2018-05-07T14:07:52.845Z,624.38
2018-05-07T14:08:52.845Z,635.63
2018-05-07T14:09:52.859Z,641.25
2018-05-07T14:10:52.872Z,652.50
2018-05-07T14:11:52.873Z,652.50
2018-05-07T14:12:52.860Z,658.13
2018-05-07T14:13:52.858Z,675.00
2018-05-07T14:14:52.865Z,680.63
2018-05-07T14:15:52.861Z,703.13
2018-05-07T14:16:52.865Z,708.75
2018-05-07T14:17:52.867Z,731.25